sensor_id;sensor_type;location;lat;lon;timestamp;temperature;humidity
15949;DHT22;14848;50.954;6.642;2023-07-13T00:02:15;16.30;99.90
15949;DHT22;14848;50.954;6.642;2023-07-13T00:04:40;16.20;99.90
15949;DHT22;14848;50.954;6.642;2023-07-13T00:07:07;16.20;99.90
15949;DHT22;14848;50.954;6.642;2023-07-13T00:09:33;16.30;99.90
15949;DHT22;14848;50.954;6.642;2023-07-13T00:11:58;16.30;99.90
15949;DHT22;14848;50.954;6.642;2023-07-13T00:14:26;16.30;99.90
15949;DHT22;14848;50.954;6.642;2023-07-13T00:16:52;16.20;99.90
15949;DHT22;14848;50.954;6.642;2023-07-13T00:19:17;16.20;99.90
15949;DHT22;14848;50.954;6.642;2023-07-13T00:21:44;16.10;99.90
15949;DHT22;14848;50.954;6.642;2023-07-13T00:26:41;16.10;99.90
15949;DHT22;14848;50.954;6.642;2023-07-13T00:29:12;16.10;99.90
15949;DHT22;14848;50.954;6.642;2023-07-13T00:31:37;16.10;99.90
15949;DHT22;14848;50.954;6.642;2023-07-13T00:36:30;15.90;99.90
15949;DHT22;14848;50.954;6.642;2023-07-13T00:38:56;15.90;99.90
15949;DHT22;14848;50.954;6.642;2023-07-13T00:41:21;15.90;99.90
15949;DHT22;14848;50.954;6.642;2023-07-13T00:43:47;15.80;99.90
15949;DHT22;14848;50.954;6.642;2023-07-13T00:46:23;15.70;99.90
15949;DHT22;14848;50.954;6.642;2023-07-13T00:48:50;15.70;99.90
15949;DHT22;14848;50.954;6.642;2023-07-13T00:51:24;15.70;99.90
15949;DHT22;14848;50.954;6.642;2023-07-13T00:53:53;15.60;99.90
15949;DHT22;14848;50.954;6.642;2023-07-13T00:56:19;15.60;99.90
15949;DHT22;14848;50.954;6.642;2023-07-13T00:58:45;15.60;99.90
15949;DHT22;14848;50.954;6.642;2023-07-13T01:01:11;15.50;99.90
15949;DHT22;14848;50.954;6.642;2023-07-13T02:34:04;14.70;99.90
15949;DHT22;14848;50.954;6.642;2023-07-13T02:48:42;14.60;99.90
15949;DHT22;14848;50.954;6.642;2023-07-13T02:51:08;14.60;99.90
15949;DHT22;14848;50.954;6.642;2023-07-13T02:53:34;14.50;99.90
15949;DHT22;14848;50.954;6.642;2023-07-13T02:56:01;14.50;99.90
15949;DHT22;14848;50.954;6.642;2023-07-13T02:58:27;14.40;99.90
15949;DHT22;14848;50.954;6.642;2023-07-13T03:00:53;14.50;99.90
15949;DHT22;14848;50.954;6.642;2023-07-13T03:03:19;14.50;99.90
15949;DHT22;14848;50.954;6.642;2023-07-13T03:05:45;14.40;99.90
15949;DHT22;14848;50.954;6.642;2023-07-13T03:08:15;14.50;99.90
15949;DHT22;14848;50.954;6.642;2023-07-13T03:10:41;14.50;99.90
15949;DHT22;14848;50.954;6.642;2023-07-13T03:13:07;14.50;99.90
15949;DHT22;14848;50.954;6.642;2023-07-13T03:15:33;14.50;99.90
15949;DHT22;14848;50.954;6.642;2023-07-13T03:17:58;14.50;99.90
15949;DHT22;14848;50.954;6.642;2023-07-13T03:20:24;14.40;99.90
15949;DHT22;14848;50.954;6.642;2023-07-13T03:22:49;14.40;99.90
15949;DHT22;14848;50.954;6.642;2023-07-13T03:25:15;14.50;99.90
15949;DHT22;14848;50.954;6.642;2023-07-13T03:27:41;14.30;99.90
15949;DHT22;14848;50.954;6.642;2023-07-13T03:30:07;14.50;99.90
15949;DHT22;14848;50.954;6.642;2023-07-13T03:32:33;14.50;99.90
15949;DHT22;14848;50.954;6.642;2023-07-13T03:34:59;14.40;99.90
15949;DHT22;14848;50.954;6.642;2023-07-13T03:37:24;14.50;99.90
15949;DHT22;14848;50.954;6.642;2023-07-13T03:39:50;14.50;99.90
15949;DHT22;14848;50.954;6.642;2023-07-13T03:42:16;14.50;99.90
15949;DHT22;14848;50.954;6.642;2023-07-13T03:44:42;14.50;99.90
15949;DHT22;14848;50.954;6.642;2023-07-13T03:47:11;14.50;99.90
15949;DHT22;14848;50.954;6.642;2023-07-13T03:49:37;14.50;99.90
15949;DHT22;14848;50.954;6.642;2023-07-13T04:04:13;14.90;99.90
15949;DHT22;14848;50.954;6.642;2023-07-13T04:38:32;16.10;99.90
15949;DHT22;14848;50.954;6.642;2023-07-13T04:41:00;16.60;99.90
15949;DHT22;14848;50.954;6.642;2023-07-13T04:43:27;17.60;99.90
15949;DHT22;14848;50.954;6.642;2023-07-13T05:24:57;24.80;99.90
15949;DHT22;14848;50.954;6.642;2023-07-13T05:27:22;24.50;99.90
15949;DHT22;14848;50.954;6.642;2023-07-13T05:29:49;24.50;99.90
15949;DHT22;14848;50.954;6.642;2023-07-13T05:32:15;24.60;99.90
15949;DHT22;14848;50.954;6.642;2023-07-13T05:34:40;25.00;99.90
15949;DHT22;14848;50.954;6.642;2023-07-13T05:37:07;25.20;99.90
15949;DHT22;14848;50.954;6.642;2023-07-13T05:39:33;25.30;99.90
15949;DHT22;14848;50.954;6.642;2023-07-13T05:41:59;25.00;99.90
15949;DHT22;14848;50.954;6.642;2023-07-13T05:44:24;25.00;99.90
15949;DHT22;14848;50.954;6.642;2023-07-13T05:46:50;25.00;99.90
15949;DHT22;14848;50.954;6.642;2023-07-13T05:49:15;24.20;99.90
15949;DHT22;14848;50.954;6.642;2023-07-13T05:51:41;22.90;99.90
15949;DHT22;14848;50.954;6.642;2023-07-13T05:54:07;22.00;99.90
15949;DHT22;14848;50.954;6.642;2023-07-13T05:56:32;21.60;99.90
15949;DHT22;14848;50.954;6.642;2023-07-13T05:58:58;21.00;99.90
15949;DHT22;14848;50.954;6.642;2023-07-13T06:01:24;20.70;99.90
15949;DHT22;14848;50.954;6.642;2023-07-13T06:03:50;20.70;99.90
15949;DHT22;14848;50.954;6.642;2023-07-13T06:06:16;20.70;99.90
15949;DHT22;14848;50.954;6.642;2023-07-13T06:08:41;20.80;99.90
15949;DHT22;14848;50.954;6.642;2023-07-13T06:11:18;21.30;99.90
15949;DHT22;14848;50.954;6.642;2023-07-13T06:13:44;22.00;99.90
15949;DHT22;14848;50.954;6.642;2023-07-13T06:16:10;22.60;99.90
15949;DHT22;14848;50.954;6.642;2023-07-13T06:18:37;22.80;99.90
15949;DHT22;14848;50.954;6.642;2023-07-13T06:21:11;22.60;99.90
15949;DHT22;14848;50.954;6.642;2023-07-13T06:23:37;22.10;99.90
15949;DHT22;14848;50.954;6.642;2023-07-13T06:26:04;22.40;99.90
15949;DHT22;14848;50.954;6.642;2023-07-13T06:38:15;24.90;99.90
15949;DHT22;14848;50.954;6.642;2023-07-13T06:43:07;25.30;99.90
15949;DHT22;14848;50.954;6.642;2023-07-13T06:45:43;25.00;99.90
15949;DHT22;14848;50.954;6.642;2023-07-13T06:48:11;24.70;99.90
15949;DHT22;14848;50.954;6.642;2023-07-13T06:50:37;24.90;99.90
15949;DHT22;14848;50.954;6.642;2023-07-13T06:53:02;25.20;99.90
15949;DHT22;14848;50.954;6.642;2023-07-13T06:55:28;25.50;99.90
15949;DHT22;14848;50.954;6.642;2023-07-13T06:57:54;26.50;99.90
15949;DHT22;14848;50.954;6.642;2023-07-13T07:19:48;22.80;99.90
15949;DHT22;14848;50.954;6.642;2023-07-13T07:22:13;22.70;99.90
15949;DHT22;14848;50.954;6.642;2023-07-13T07:24:39;22.60;99.90
15949;DHT22;14848;50.954;6.642;2023-07-13T07:27:05;22.50;99.90
15949;DHT22;14848;50.954;6.642;2023-07-13T07:29:31;22.60;99.90
15949;DHT22;14848;50.954;6.642;2023-07-13T07:31:56;22.40;99.90
15949;DHT22;14848;50.954;6.642;2023-07-13T07:34:23;22.30;99.90
15949;DHT22;14848;50.954;6.642;2023-07-13T07:36:49;22.00;99.90
15949;DHT22;14848;50.954;6.642;2023-07-13T07:39:15;21.70;99.90
15949;DHT22;14848;50.954;6.642;2023-07-13T07:41:42;21.60;99.90
15949;DHT22;14848;50.954;6.642;2023-07-13T07:44:08;21.30;99.90
15949;DHT22;14848;50.954;6.642;2023-07-13T07:46:35;21.20;99.90
15949;DHT22;14848;50.954;6.642;2023-07-13T07:49:01;21.30;99.90
15949;DHT22;14848;50.954;6.642;2023-07-13T07:51:26;21.50;99.90
15949;DHT22;14848;50.954;6.642;2023-07-13T08:08:28;21.70;99.90
15949;DHT22;14848;50.954;6.642;2023-07-13T08:10:54;21.80;99.90
15949;DHT22;14848;50.954;6.642;2023-07-13T08:13:20;22.10;99.90
15949;DHT22;14848;50.954;6.642;2023-07-13T08:15:48;22.10;99.90
15949;DHT22;14848;50.954;6.642;2023-07-13T08:18:15;22.30;99.90
15949;DHT22;14848;50.954;6.642;2023-07-13T08:20:41;22.60;99.90
15949;DHT22;14848;50.954;6.642;2023-07-13T08:23:09;22.50;99.90
15949;DHT22;14848;50.954;6.642;2023-07-13T08:25:35;22.60;99.90
15949;DHT22;14848;50.954;6.642;2023-07-13T08:40:13;22.60;99.90
15949;DHT22;14848;50.954;6.642;2023-07-13T08:57:40;22.00;99.90
15949;DHT22;14848;50.954;6.642;2023-07-13T09:00:10;22.30;99.90
15949;DHT22;14848;50.954;6.642;2023-07-13T09:15:48;22.30;99.90
15949;DHT22;14848;50.954;6.642;2023-07-13T09:20:59;22.60;99.90
15949;DHT22;14848;50.954;6.642;2023-07-13T09:23:28;22.10;99.90
15949;DHT22;14848;50.954;6.642;2023-07-13T09:26:19;21.80;99.90
15949;DHT22;14848;50.954;6.642;2023-07-13T09:28:49;21.80;99.90
15949;DHT22;14848;50.954;6.642;2023-07-13T09:31:38;21.80;99.90
15949;DHT22;14848;50.954;6.642;2023-07-13T09:34:09;22.00;99.90
15949;DHT22;14848;50.954;6.642;2023-07-13T09:36:35;21.80;99.90
15949;DHT22;14848;50.954;6.642;2023-07-13T09:44:37;21.30;99.90
15949;DHT22;14848;50.954;6.642;2023-07-13T09:47:17;21.40;99.90
15949;DHT22;14848;50.954;6.642;2023-07-13T09:49:43;21.50;99.90
15949;DHT22;14848;50.954;6.642;2023-07-13T09:52:15;21.60;99.90
15949;DHT22;14848;50.954;6.642;2023-07-13T09:54:50;22.00;99.90
15949;DHT22;14848;50.954;6.642;2023-07-13T09:57:18;21.80;99.90
15949;DHT22;14848;50.954;6.642;2023-07-13T09:59:47;21.90;99.90
15949;DHT22;14848;50.954;6.642;2023-07-13T10:02:33;21.80;99.90
15949;DHT22;14848;50.954;6.642;2023-07-13T10:05:06;21.80;99.90
15949;DHT22;14848;50.954;6.642;2023-07-13T10:07:38;22.10;99.90
15949;DHT22;14848;50.954;6.642;2023-07-13T10:10:14;22.20;99.90
15949;DHT22;14848;50.954;6.642;2023-07-13T10:12:40;22.20;99.90
15949;DHT22;14848;50.954;6.642;2023-07-13T10:15:13;22.20;99.90
15949;DHT22;14848;50.954;6.642;2023-07-13T10:17:40;22.00;99.90
15949;DHT22;14848;50.954;6.642;2023-07-13T10:20:06;21.60;99.90
15949;DHT22;14848;50.954;6.642;2023-07-13T10:25:29;22.00;99.90
15949;DHT22;14848;50.954;6.642;2023-07-13T10:28:05;22.30;99.90
15949;DHT22;14848;50.954;6.642;2023-07-13T10:30:34;22.30;99.90
15949;DHT22;14848;50.954;6.642;2023-07-13T10:33:03;22.40;99.90
15949;DHT22;14848;50.954;6.642;2023-07-13T10:35:30;22.30;99.90
15949;DHT22;14848;50.954;6.642;2023-07-13T10:38:06;22.50;99.90
15949;DHT22;14848;50.954;6.642;2023-07-13T10:40:45;22.50;99.90
15949;DHT22;14848;50.954;6.642;2023-07-13T10:43:24;22.70;99.90
15949;DHT22;14848;50.954;6.642;2023-07-13T10:45:53;22.90;99.90
15949;DHT22;14848;50.954;6.642;2023-07-13T10:48:21;23.00;99.90
15949;DHT22;14848;50.954;6.642;2023-07-13T10:50:50;22.90;99.90
15949;DHT22;14848;50.954;6.642;2023-07-13T10:53:29;23.10;99.90
15949;DHT22;14848;50.954;6.642;2023-07-13T10:55:58;23.20;99.90
15949;DHT22;14848;50.954;6.642;2023-07-13T10:58:38;23.30;99.90
15949;DHT22;14848;50.954;6.642;2023-07-13T11:03:35;23.80;99.90
15949;DHT22;14848;50.954;6.642;2023-07-13T11:06:28;23.50;99.90
15949;DHT22;14848;50.954;6.642;2023-07-13T11:08:56;23.40;99.90
15949;DHT22;14848;50.954;6.642;2023-07-13T11:27:35;23.00;99.90
15949;DHT22;14848;50.954;6.642;2023-07-13T11:30:18;23.20;99.90
15949;DHT22;14848;50.954;6.642;2023-07-13T11:35:35;23.30;99.90
15949;DHT22;14848;50.954;6.642;2023-07-13T11:38:03;23.30;99.90
15949;DHT22;14848;50.954;6.642;2023-07-13T11:40:35;23.30;99.90
15949;DHT22;14848;50.954;6.642;2023-07-13T11:43:02;23.30;99.90
15949;DHT22;14848;50.954;6.642;2023-07-13T11:45:28;23.10;99.90
15949;DHT22;14848;50.954;6.642;2023-07-13T11:47:54;23.00;99.90
15949;DHT22;14848;50.954;6.642;2023-07-13T11:50:24;23.50;99.90
15949;DHT22;14848;50.954;6.642;2023-07-13T11:52:51;23.50;99.90
15949;DHT22;14848;50.954;6.642;2023-07-13T11:55:21;23.70;99.90
15949;DHT22;14848;50.954;6.642;2023-07-13T11:57:57;23.90;99.90
15949;DHT22;14848;50.954;6.642;2023-07-13T12:00:28;23.90;99.90
15949;DHT22;14848;50.954;6.642;2023-07-13T12:02:56;24.00;99.90
15949;DHT22;14848;50.954;6.642;2023-07-13T12:05:22;24.20;99.90
15949;DHT22;14848;50.954;6.642;2023-07-13T12:07:49;24.20;99.90
15949;DHT22;14848;50.954;6.642;2023-07-13T12:15:27;23.60;99.90
15949;DHT22;14848;50.954;6.642;2023-07-13T12:17:54;23.70;99.90
15949;DHT22;14848;50.954;6.642;2023-07-13T12:20:27;23.90;99.90
15949;DHT22;14848;50.954;6.642;2023-07-13T13:00:36;23.50;99.90
15949;DHT22;14848;50.954;6.642;2023-07-13T13:03:19;23.40;99.90
15949;DHT22;14848;50.954;6.642;2023-07-13T13:05:46;23.50;99.90
15949;DHT22;14848;50.954;6.642;2023-07-13T13:08:12;23.60;99.90
15949;DHT22;14848;50.954;6.642;2023-07-13T13:10:38;23.80;99.90
15949;DHT22;14848;50.954;6.642;2023-07-13T13:13:04;23.80;99.90
15949;DHT22;14848;50.954;6.642;2023-07-13T13:15:30;23.80;99.90
15949;DHT22;14848;50.954;6.642;2023-07-13T13:17:56;24.10;99.90
15949;DHT22;14848;50.954;6.642;2023-07-13T13:20:24;24.30;99.90
15949;DHT22;14848;50.954;6.642;2023-07-13T13:22:51;24.40;99.90
15949;DHT22;14848;50.954;6.642;2023-07-13T13:25:17;24.40;99.90
15949;DHT22;14848;50.954;6.642;2023-07-13T13:27:44;24.40;99.90
15949;DHT22;14848;50.954;6.642;2023-07-13T13:30:11;24.50;99.90
15949;DHT22;14848;50.954;6.642;2023-07-13T13:32:43;24.70;99.90
15949;DHT22;14848;50.954;6.642;2023-07-13T13:35:16;24.60;99.90
15949;DHT22;14848;50.954;6.642;2023-07-13T13:37:43;24.40;99.90
15949;DHT22;14848;50.954;6.642;2023-07-13T13:40:21;24.50;99.90
15949;DHT22;14848;50.954;6.642;2023-07-13T13:42:48;24.70;99.90
15949;DHT22;14848;50.954;6.642;2023-07-13T13:45:14;24.40;99.90
15949;DHT22;14848;50.954;6.642;2023-07-13T13:47:41;24.10;99.90
15949;DHT22;14848;50.954;6.642;2023-07-13T13:50:27;24.30;99.90
15949;DHT22;14848;50.954;6.642;2023-07-13T13:52:53;24.30;99.90
15949;DHT22;14848;50.954;6.642;2023-07-13T13:55:20;24.50;99.90
15949;DHT22;14848;50.954;6.642;2023-07-13T13:57:47;24.60;99.90
15949;DHT22;14848;50.954;6.642;2023-07-13T14:00:14;24.40;99.90
15949;DHT22;14848;50.954;6.642;2023-07-13T14:02:46;24.30;99.90
15949;DHT22;14848;50.954;6.642;2023-07-13T14:05:14;24.30;99.90
15949;DHT22;14848;50.954;6.642;2023-07-13T14:07:41;24.40;99.90
15949;DHT22;14848;50.954;6.642;2023-07-13T14:10:15;24.40;99.90
15949;DHT22;14848;50.954;6.642;2023-07-13T14:12:42;24.60;99.90
15949;DHT22;14848;50.954;6.642;2023-07-13T14:17:44;24.60;99.90
15949;DHT22;14848;50.954;6.642;2023-07-13T14:20:11;24.70;99.90
15949;DHT22;14848;50.954;6.642;2023-07-13T14:22:37;24.70;99.90
15949;DHT22;14848;50.954;6.642;2023-07-13T14:25:03;24.60;99.90
15949;DHT22;14848;50.954;6.642;2023-07-13T14:27:29;24.40;99.90
15949;DHT22;14848;50.954;6.642;2023-07-13T14:29:55;24.50;99.90
15949;DHT22;14848;50.954;6.642;2023-07-13T14:34:46;24.60;99.90
15949;DHT22;14848;50.954;6.642;2023-07-13T14:37:14;24.50;99.90
15949;DHT22;14848;50.954;6.642;2023-07-13T14:39:43;24.30;99.90
15949;DHT22;14848;50.954;6.642;2023-07-13T14:42:09;24.20;99.90
15949;DHT22;14848;50.954;6.642;2023-07-13T14:44:37;24.50;99.90
15949;DHT22;14848;50.954;6.642;2023-07-13T14:47:05;24.40;99.90
15949;DHT22;14848;50.954;6.642;2023-07-13T14:49:36;24.40;99.90
15949;DHT22;14848;50.954;6.642;2023-07-13T14:52:23;24.20;99.90
15949;DHT22;14848;50.954;6.642;2023-07-13T14:54:49;24.10;99.90
15949;DHT22;14848;50.954;6.642;2023-07-13T14:57:19;24.00;99.90
15949;DHT22;14848;50.954;6.642;2023-07-13T14:59:45;24.20;99.90
15949;DHT22;14848;50.954;6.642;2023-07-13T15:04:40;24.40;99.90
15949;DHT22;14848;50.954;6.642;2023-07-13T15:07:07;24.30;99.90
15949;DHT22;14848;50.954;6.642;2023-07-13T15:09:34;24.20;99.90
15949;DHT22;14848;50.954;6.642;2023-07-13T15:12:00;24.10;99.90
15949;DHT22;14848;50.954;6.642;2023-07-13T15:14:26;23.80;99.90
15949;DHT22;14848;50.954;6.642;2023-07-13T15:16:54;23.60;99.90
15949;DHT22;14848;50.954;6.642;2023-07-13T15:19:21;23.40;99.90
15949;DHT22;14848;50.954;6.642;2023-07-13T15:21:49;23.20;99.90
15949;DHT22;14848;50.954;6.642;2023-07-13T15:24:15;23.10;99.90
15949;DHT22;14848;50.954;6.642;2023-07-13T15:26:42;23.20;99.90
15949;DHT22;14848;50.954;6.642;2023-07-13T15:29:12;23.00;99.90
15949;DHT22;14848;50.954;6.642;2023-07-13T15:31:38;22.30;99.90
15949;DHT22;14848;50.954;6.642;2023-07-13T15:34:12;21.80;99.90
15949;DHT22;14848;50.954;6.642;2023-07-13T15:36:38;21.70;99.90
15949;DHT22;14848;50.954;6.642;2023-07-13T15:41:32;21.50;99.90
15949;DHT22;14848;50.954;6.642;2023-07-13T15:43:58;21.50;99.90
15949;DHT22;14848;50.954;6.642;2023-07-13T15:46:26;21.40;99.90
15949;DHT22;14848;50.954;6.642;2023-07-13T15:48:53;21.30;99.90
15949;DHT22;14848;50.954;6.642;2023-07-13T15:51:27;21.20;99.90
15949;DHT22;14848;50.954;6.642;2023-07-13T15:53:55;21.20;99.90
15949;DHT22;14848;50.954;6.642;2023-07-13T15:56:28;21.30;99.90
15949;DHT22;14848;50.954;6.642;2023-07-13T15:58:55;21.10;99.90
15949;DHT22;14848;50.954;6.642;2023-07-13T16:01:22;21.20;99.90
15949;DHT22;14848;50.954;6.642;2023-07-13T16:03:49;20.90;99.90
15949;DHT22;14848;50.954;6.642;2023-07-13T16:06:22;21.20;99.90
15949;DHT22;14848;50.954;6.642;2023-07-13T16:08:49;21.10;99.90
15949;DHT22;14848;50.954;6.642;2023-07-13T16:11:25;20.90;99.90
15949;DHT22;14848;50.954;6.642;2023-07-13T16:13:52;20.80;99.90
15949;DHT22;14848;50.954;6.642;2023-07-13T16:16:28;20.70;99.90
15949;DHT22;14848;50.954;6.642;2023-07-13T16:18:59;20.70;99.90
15949;DHT22;14848;50.954;6.642;2023-07-13T16:21:30;20.60;99.90
15949;DHT22;14848;50.954;6.642;2023-07-13T16:23:58;20.60;99.90
15949;DHT22;14848;50.954;6.642;2023-07-13T16:29:23;20.70;99.90
15949;DHT22;14848;50.954;6.642;2023-07-13T16:34:27;20.90;99.90
15949;DHT22;14848;50.954;6.642;2023-07-13T16:39:19;20.90;99.90
15949;DHT22;14848;50.954;6.642;2023-07-13T16:41:45;20.90;99.90
15949;DHT22;14848;50.954;6.642;2023-07-13T16:44:13;21.00;99.90
15949;DHT22;14848;50.954;6.642;2023-07-13T16:46:38;20.90;99.90
15949;DHT22;14848;50.954;6.642;2023-07-13T16:49:24;21.10;99.90
15949;DHT22;14848;50.954;6.642;2023-07-13T16:51:51;21.10;99.90
15949;DHT22;14848;50.954;6.642;2023-07-13T16:54:17;21.10;99.90
15949;DHT22;14848;50.954;6.642;2023-07-13T16:56:45;21.10;99.90
15949;DHT22;14848;50.954;6.642;2023-07-13T16:59:13;21.20;99.90
15949;DHT22;14848;50.954;6.642;2023-07-13T17:01:40;21.20;99.90
15949;DHT22;14848;50.954;6.642;2023-07-13T17:04:09;21.50;99.90
15949;DHT22;14848;50.954;6.642;2023-07-13T17:06:36;21.60;99.90
15949;DHT22;14848;50.954;6.642;2023-07-13T17:09:02;21.80;99.90
15949;DHT22;14848;50.954;6.642;2023-07-13T17:11:32;21.80;99.90
15949;DHT22;14848;50.954;6.642;2023-07-13T17:16:25;22.00;99.90
15949;DHT22;14848;50.954;6.642;2023-07-13T17:18:51;21.80;99.90
15949;DHT22;14848;50.954;6.642;2023-07-13T17:21:17;21.80;99.90
15949;DHT22;14848;50.954;6.642;2023-07-13T17:23:43;21.90;99.90
15949;DHT22;14848;50.954;6.642;2023-07-13T17:26:09;22.10;99.90
15949;DHT22;14848;50.954;6.642;2023-07-13T17:28:35;22.40;99.90
15949;DHT22;14848;50.954;6.642;2023-07-13T17:31:02;22.40;99.90
15949;DHT22;14848;50.954;6.642;2023-07-13T17:33:37;22.40;99.90
15949;DHT22;14848;50.954;6.642;2023-07-13T17:36:10;22.30;99.90
15949;DHT22;14848;50.954;6.642;2023-07-13T17:38:43;22.30;99.90
15949;DHT22;14848;50.954;6.642;2023-07-13T17:41:13;22.40;99.90
15949;DHT22;14848;50.954;6.642;2023-07-13T17:43:42;22.30;99.90
15949;DHT22;14848;50.954;6.642;2023-07-13T17:46:31;22.40;99.90
15949;DHT22;14848;50.954;6.642;2023-07-13T17:48:58;22.40;99.90
15949;DHT22;14848;50.954;6.642;2023-07-13T17:51:24;22.30;99.90
15949;DHT22;14848;50.954;6.642;2023-07-13T17:53:53;22.20;99.90
15949;DHT22;14848;50.954;6.642;2023-07-13T17:56:21;22.30;99.90
15949;DHT22;14848;50.954;6.642;2023-07-13T17:58:50;22.20;99.90
15949;DHT22;14848;50.954;6.642;2023-07-13T18:01:18;22.00;99.90
15949;DHT22;14848;50.954;6.642;2023-07-13T18:03:51;21.90;99.90
15949;DHT22;14848;50.954;6.642;2023-07-13T18:06:25;21.80;99.90
15949;DHT22;14848;50.954;6.642;2023-07-13T18:08:54;21.60;99.90
15949;DHT22;14848;50.954;6.642;2023-07-13T18:11:21;21.50;99.90
15949;DHT22;14848;50.954;6.642;2023-07-13T18:13:48;18.80;99.90
15949;DHT22;14848;50.954;6.642;2023-07-13T18:16:22;21.40;99.90
15949;DHT22;14848;50.954;6.642;2023-07-13T18:18:52;21.40;99.90
15949;DHT22;14848;50.954;6.642;2023-07-13T18:21:18;21.50;99.90
15949;DHT22;14848;50.954;6.642;2023-07-13T18:23:44;21.40;99.90
15949;DHT22;14848;50.954;6.642;2023-07-13T18:26:12;21.50;99.90
15949;DHT22;14848;50.954;6.642;2023-07-13T18:28:38;21.40;99.90
15949;DHT22;14848;50.954;6.642;2023-07-13T18:31:11;21.40;99.90
15949;DHT22;14848;50.954;6.642;2023-07-13T18:33:39;21.30;99.90
15949;DHT22;14848;50.954;6.642;2023-07-13T18:36:11;21.20;99.90
15949;DHT22;14848;50.954;6.642;2023-07-13T18:38:39;21.20;99.90
15949;DHT22;14848;50.954;6.642;2023-07-13T18:41:04;21.10;99.90
15949;DHT22;14848;50.954;6.642;2023-07-13T18:43:31;21.00;99.90
15949;DHT22;14848;50.954;6.642;2023-07-13T18:46:00;20.90;99.90
15949;DHT22;14848;50.954;6.642;2023-07-13T18:48:29;20.80;99.90
15949;DHT22;14848;50.954;6.642;2023-07-13T18:50:57;20.70;99.90
15949;DHT22;14848;50.954;6.642;2023-07-13T18:53:23;20.60;99.90
15949;DHT22;14848;50.954;6.642;2023-07-13T18:55:49;20.60;99.90
15949;DHT22;14848;50.954;6.642;2023-07-13T18:58:15;20.50;99.90
15949;DHT22;14848;50.954;6.642;2023-07-13T19:00:42;20.50;99.90
15949;DHT22;14848;50.954;6.642;2023-07-13T19:03:19;20.50;99.90
15949;DHT22;14848;50.954;6.642;2023-07-13T19:05:47;20.50;99.90
15949;DHT22;14848;50.954;6.642;2023-07-13T19:08:18;20.50;99.90
15949;DHT22;14848;50.954;6.642;2023-07-13T19:10:44;20.40;99.90
15949;DHT22;14848;50.954;6.642;2023-07-13T19:13:19;20.30;99.90
15949;DHT22;14848;50.954;6.642;2023-07-13T19:15:45;20.30;99.90
15949;DHT22;14848;50.954;6.642;2023-07-13T19:18:15;20.20;99.90
15949;DHT22;14848;50.954;6.642;2023-07-13T19:20:42;20.10;99.90
15949;DHT22;14848;50.954;6.642;2023-07-13T19:25:43;20.10;99.90
15949;DHT22;14848;50.954;6.642;2023-07-13T19:30:51;20.00;99.90
15949;DHT22;14848;50.954;6.642;2023-07-13T19:33:17;20.10;99.90
15949;DHT22;14848;50.954;6.642;2023-07-13T19:35:43;20.00;99.90
15949;DHT22;14848;50.954;6.642;2023-07-13T19:38:16;20.00;99.90
15949;DHT22;14848;50.954;6.642;2023-07-13T19:40:46;19.90;99.90
15949;DHT22;14848;50.954;6.642;2023-07-13T19:43:12;19.80;99.90
15949;DHT22;14848;50.954;6.642;2023-07-13T19:45:38;19.70;99.90
15949;DHT22;14848;50.954;6.642;2023-07-13T19:48:04;19.70;99.90
15949;DHT22;14848;50.954;6.642;2023-07-13T19:50:30;19.60;99.90
15949;DHT22;14848;50.954;6.642;2023-07-13T19:52:57;19.60;99.90
15949;DHT22;14848;50.954;6.642;2023-07-13T19:55:24;19.50;99.90
15949;DHT22;14848;50.954;6.642;2023-07-13T19:57:51;19.50;99.90
15949;DHT22;14848;50.954;6.642;2023-07-13T20:00:19;19.40;99.90
15949;DHT22;14848;50.954;6.642;2023-07-13T20:02:47;19.40;99.90
15949;DHT22;14848;50.954;6.642;2023-07-13T20:05:18;19.40;99.90
15949;DHT22;14848;50.954;6.642;2023-07-13T20:07:46;19.40;99.90
15949;DHT22;14848;50.954;6.642;2023-07-13T20:12:51;19.40;99.90
15949;DHT22;14848;50.954;6.642;2023-07-13T20:15:21;19.30;99.90
15949;DHT22;14848;50.954;6.642;2023-07-13T20:17:53;19.20;99.90
15949;DHT22;14848;50.954;6.642;2023-07-13T20:20:26;19.10;99.90
15949;DHT22;14848;50.954;6.642;2023-07-13T20:22:54;19.00;99.90
15949;DHT22;14848;50.954;6.642;2023-07-13T20:25:22;18.90;99.90
15949;DHT22;14848;50.954;6.642;2023-07-13T20:27:49;18.70;99.90
15949;DHT22;14848;50.954;6.642;2023-07-13T20:30:16;18.70;99.90
15949;DHT22;14848;50.954;6.642;2023-07-13T20:32:42;18.60;99.90
15949;DHT22;14848;50.954;6.642;2023-07-13T20:35:25;18.60;99.90
15949;DHT22;14848;50.954;6.642;2023-07-13T20:37:51;18.40;99.90
15949;DHT22;14848;50.954;6.642;2023-07-13T20:40:20;18.30;99.90
15949;DHT22;14848;50.954;6.642;2023-07-13T20:42:46;18.30;99.90
15949;DHT22;14848;50.954;6.642;2023-07-13T20:45:13;18.20;99.90
15949;DHT22;14848;50.954;6.642;2023-07-13T20:47:39;18.10;99.90
15949;DHT22;14848;50.954;6.642;2023-07-13T20:50:29;18.10;99.90
15949;DHT22;14848;50.954;6.642;2023-07-13T20:53:00;18.10;99.90
15949;DHT22;14848;50.954;6.642;2023-07-13T20:55:28;18.10;99.90
15949;DHT22;14848;50.954;6.642;2023-07-13T20:57:55;18.10;99.90
15949;DHT22;14848;50.954;6.642;2023-07-13T21:00:30;18.00;99.90
15949;DHT22;14848;50.954;6.642;2023-07-13T21:03:04;17.90;99.90
15949;DHT22;14848;50.954;6.642;2023-07-13T21:05:40;17.70;99.90
15949;DHT22;14848;50.954;6.642;2023-07-13T21:08:17;17.60;99.90
15949;DHT22;14848;50.954;6.642;2023-07-13T21:10:44;17.40;99.90
15949;DHT22;14848;50.954;6.642;2023-07-13T21:13:10;17.30;99.90
15949;DHT22;14848;50.954;6.642;2023-07-13T21:15:38;17.30;99.90
15949;DHT22;14848;50.954;6.642;2023-07-13T21:18:04;17.30;99.90
15949;DHT22;14848;50.954;6.642;2023-07-13T21:20:38;17.30;99.90
15949;DHT22;14848;50.954;6.642;2023-07-13T21:23:33;17.30;99.90
15949;DHT22;14848;50.954;6.642;2023-07-13T21:26:01;17.30;99.90
15949;DHT22;14848;50.954;6.642;2023-07-13T21:28:29;17.30;99.90
15949;DHT22;14848;50.954;6.642;2023-07-13T21:30:58;17.10;99.90
15949;DHT22;14848;50.954;6.642;2023-07-13T21:33:25;17.00;99.90
15949;DHT22;14848;50.954;6.642;2023-07-13T21:35:52;17.00;99.90
15949;DHT22;14848;50.954;6.642;2023-07-13T21:38:32;16.80;99.90
15949;DHT22;14848;50.954;6.642;2023-07-13T21:41:02;16.80;99.90
15949;DHT22;14848;50.954;6.642;2023-07-13T21:43:29;16.70;99.90
15949;DHT22;14848;50.954;6.642;2023-07-13T21:45:55;16.60;99.90
15949;DHT22;14848;50.954;6.642;2023-07-13T21:48:21;16.60;99.90
15949;DHT22;14848;50.954;6.642;2023-07-13T21:50:53;16.50;99.90
15949;DHT22;14848;50.954;6.642;2023-07-13T21:53:27;16.60;99.90
15949;DHT22;14848;50.954;6.642;2023-07-13T21:55:55;16.90;99.90
15949;DHT22;14848;50.954;6.642;2023-07-13T21:58:33;16.60;99.90
15949;DHT22;14848;50.954;6.642;2023-07-13T22:01:00;16.70;99.90